sensor_id;sensor_type;location;lat;lon;timestamp;pressure;altitude;pressure_sealevel;temperature;humidity
42385;BME280;28042;43.986;22.860;2023-11-19T00:02:16;101356.47;;;4.51;96.65
42385;BME280;28042;43.986;22.860;2023-11-19T00:04:41;101370.56;;;4.65;97.08
42385;BME280;28042;43.986;22.860;2023-11-19T00:07:07;101361.91;;;4.61;96.74
42385;BME280;28042;43.986;22.860;2023-11-19T00:09:36;101354.66;;;4.62;97.51
42385;BME280;28042;43.986;22.860;2023-11-19T00:12:06;101357.91;;;4.65;96.96
42385;BME280;28042;43.986;22.860;2023-11-19T00:14:32;101326.22;;;4.48;97.03
42385;BME280;28042;43.986;22.860;2023-11-19T00:16:58;101319.97;;;4.47;97.35
42385;BME280;28042;43.986;22.860;2023-11-19T00:19:24;101359.59;;;4.66;96.99
42385;BME280;28042;43.986;22.860;2023-11-19T00:21:49;101367.88;;;4.65;97.75
42385;BME280;28042;43.986;22.860;2023-11-19T00:24:15;101370.84;;;4.71;96.99
42385;BME280;28042;43.986;22.860;2023-11-19T00:26:44;101356.91;;;4.66;96.44
42385;BME280;28042;43.986;22.860;2023-11-19T00:29:09;101351.66;;;4.55;96.43
42385;BME280;28042;43.986;22.860;2023-11-19T00:31:35;101384.63;;;4.68;96.88
42385;BME280;28042;43.986;22.860;2023-11-19T00:34:01;101349.53;;;4.49;97.30
42385;BME280;28042;43.986;22.860;2023-11-19T00:36:27;101376.13;;;4.63;97.46
42385;BME280;28042;43.986;22.860;2023-11-19T00:38:53;101354.06;;;4.48;97.95
42385;BME280;28042;43.986;22.860;2023-11-19T00:41:19;101343.81;;;4.42;97.85
42385;BME280;28042;43.986;22.860;2023-11-19T00:43:44;101373.13;;;4.66;96.86
42385;BME280;28042;43.986;22.860;2023-11-19T00:46:10;101357.22;;;4.63;96.46
42385;BME280;28042;43.986;22.860;2023-11-19T00:48:39;101373.41;;;4.63;96.28
42385;BME280;28042;43.986;22.860;2023-11-19T00:51:05;101353.53;;;4.45;96.41
42385;BME280;28042;43.986;22.860;2023-11-19T00:53:31;101378.69;;;4.55;96.35
42385;BME280;28042;43.986;22.860;2023-11-19T00:55:57;101353.38;;;4.37;96.37
42385;BME280;28042;43.986;22.860;2023-11-19T00:58:23;101394.19;;;4.53;96.79
42385;BME280;28042;43.986;22.860;2023-11-19T01:00:48;101381.38;;;4.45;96.69
42385;BME280;28042;43.986;22.860;2023-11-19T01:03:14;101394.59;;;4.58;95.87
42385;BME280;28042;43.986;22.860;2023-11-19T01:05:41;101380.09;;;4.59;94.92
42385;BME280;28042;43.986;22.860;2023-11-19T01:08:06;101381.69;;;4.52;95.40
42385;BME280;28042;43.986;22.860;2023-11-19T01:10:32;101357.22;;;4.44;94.84
42385;BME280;28042;43.986;22.860;2023-11-19T01:12:58;101384.09;;;4.65;94.31
42385;BME280;28042;43.986;22.860;2023-11-19T01:15:23;101356.06;;;4.37;94.17
42385;BME280;28042;43.986;22.860;2023-11-19T01:17:49;101368.28;;;4.50;93.87
42385;BME280;28042;43.986;22.860;2023-11-19T01:20:14;101391.19;;;4.66;93.25
42385;BME280;28042;43.986;22.860;2023-11-19T01:22:40;101381.94;;;4.68;93.94
42385;BME280;28042;43.986;22.860;2023-11-19T01:25:06;101364.31;;;4.45;94.43
42385;BME280;28042;43.986;22.860;2023-11-19T01:27:32;101383.94;;;4.57;93.99
42385;BME280;28042;43.986;22.860;2023-11-19T01:30:00;101370.00;;;4.42;94.69
42385;BME280;28042;43.986;22.860;2023-11-19T01:32:28;101379.94;;;4.51;95.64
42385;BME280;28042;43.986;22.860;2023-11-19T01:34:53;101352.06;;;4.31;95.83
42385;BME280;28042;43.986;22.860;2023-11-19T01:37:19;101358.63;;;4.29;95.98
42385;BME280;28042;43.986;22.860;2023-11-19T01:39:44;101385.50;;;4.40;97.13
42385;BME280;28042;43.986;22.860;2023-11-19T01:42:10;101390.47;;;4.44;97.08
42385;BME280;28042;43.986;22.860;2023-11-19T01:44:37;101357.19;;;4.24;96.99
42385;BME280;28042;43.986;22.860;2023-11-19T01:47:03;101388.03;;;4.32;97.96
42385;BME280;28042;43.986;22.860;2023-11-19T01:49:30;101399.13;;;4.29;98.28
42385;BME280;28042;43.986;22.860;2023-11-19T01:51:57;101377.38;;;4.20;98.52
42385;BME280;28042;43.986;22.860;2023-11-19T01:54:24;101386.34;;;4.31;97.84
42385;BME280;28042;43.986;22.860;2023-11-19T01:56:49;101366.88;;;4.17;97.59
42385;BME280;28042;43.986;22.860;2023-11-19T01:59:15;101376.22;;;4.13;98.14
42385;BME280;28042;43.986;22.860;2023-11-19T02:01:42;101404.78;;;4.25;98.48
42385;BME280;28042;43.986;22.860;2023-11-19T02:04:08;101364.69;;;4.02;98.55
42385;BME280;28042;43.986;22.860;2023-11-19T02:06:37;101402.06;;;4.06;99.07
42385;BME280;28042;43.986;22.860;2023-11-19T02:09:03;101392.09;;;3.97;100.00
42385;BME280;28042;43.986;22.860;2023-11-19T02:11:33;101356.25;;;3.76;100.00
42385;BME280;28042;43.986;22.860;2023-11-19T02:14:00;101354.88;;;3.91;99.63
42385;BME280;28042;43.986;22.860;2023-11-19T02:16:25;101352.59;;;3.86;100.00
42385;BME280;28042;43.986;22.860;2023-11-19T02:18:51;101385.03;;;4.25;99.32
42385;BME280;28042;43.986;22.860;2023-11-19T02:21:16;101342.66;;;4.06;98.62
42385;BME280;28042;43.986;22.860;2023-11-19T02:23:43;101387.88;;;4.23;98.70
42385;BME280;28042;43.986;22.860;2023-11-19T02:26:22;101376.09;;;4.34;97.74
42385;BME280;28042;43.986;22.860;2023-11-19T02:28:50;101348.50;;;4.11;97.29
42385;BME280;28042;43.986;22.860;2023-11-19T02:31:16;101380.53;;;4.35;97.20
42385;BME280;28042;43.986;22.860;2023-11-19T02:33:41;101383.34;;;4.34;97.33
42385;BME280;28042;43.986;22.860;2023-11-19T02:36:07;101381.38;;;4.26;97.64
42385;BME280;28042;43.986;22.860;2023-11-19T02:38:34;101367.97;;;4.05;98.40
42385;BME280;28042;43.986;22.860;2023-11-19T02:41:03;101387.56;;;4.17;98.10
42385;BME280;28042;43.986;22.860;2023-11-19T02:43:32;101349.47;;;3.91;98.89
42385;BME280;28042;43.986;22.860;2023-11-19T02:46:00;101375.06;;;4.06;99.05
42385;BME280;28042;43.986;22.860;2023-11-19T02:48:25;101354.31;;;3.97;99.36
42385;BME280;28042;43.986;22.860;2023-11-19T02:50:51;101328.84;;;3.90;98.47
42385;BME280;28042;43.986;22.860;2023-11-19T02:53:17;101331.28;;;3.83;99.40
42385;BME280;28042;43.986;22.860;2023-11-19T02:55:43;101363.41;;;4.06;99.16
42385;BME280;28042;43.986;22.860;2023-11-19T02:58:14;101313.66;;;3.79;98.68
42385;BME280;28042;43.986;22.860;2023-11-19T03:00:49;101371.50;;;3.96;99.61
42385;BME280;28042;43.986;22.860;2023-11-19T03:03:27;101381.41;;;3.86;100.00
42385;BME280;28042;43.986;22.860;2023-11-19T03:06:04;101385.25;;;3.83;100.00
42385;BME280;28042;43.986;22.860;2023-11-19T03:08:30;101400.28;;;3.76;100.00
42385;BME280;28042;43.986;22.860;2023-11-19T03:10:55;101368.88;;;3.65;100.00
42385;BME280;28042;43.986;22.860;2023-11-19T03:13:21;101365.25;;;3.55;100.00
42385;BME280;28042;43.986;22.860;2023-11-19T03:15:47;101371.22;;;3.49;100.00
42385;BME280;28042;43.986;22.860;2023-11-19T03:18:12;101390.28;;;3.57;100.00
42385;BME280;28042;43.986;22.860;2023-11-19T03:20:38;101381.97;;;3.39;100.00
42385;BME280;28042;43.986;22.860;2023-11-19T03:23:04;101380.28;;;3.48;100.00
42385;BME280;28042;43.986;22.860;2023-11-19T03:25:29;101425.25;;;3.68;100.00
42385;BME280;28042;43.986;22.860;2023-11-19T03:27:58;101381.81;;;3.41;100.00
42385;BME280;28042;43.986;22.860;2023-11-19T03:30:23;101384.94;;;3.46;100.00
42385;BME280;28042;43.986;22.860;2023-11-19T03:32:50;101404.00;;;3.54;100.00
42385;BME280;28042;43.986;22.860;2023-11-19T03:35:15;101381.69;;;3.43;100.00
42385;BME280;28042;43.986;22.860;2023-11-19T03:37:41;101405.88;;;3.63;100.00
42385;BME280;28042;43.986;22.860;2023-11-19T03:40:07;101364.66;;;3.42;100.00
42385;BME280;28042;43.986;22.860;2023-11-19T03:42:32;101399.38;;;3.66;100.00
42385;BME280;28042;43.986;22.860;2023-11-19T03:44:58;101361.41;;;3.48;100.00
42385;BME280;28042;43.986;22.860;2023-11-19T03:47:24;101353.56;;;3.45;100.00
42385;BME280;28042;43.986;22.860;2023-11-19T03:49:50;101377.63;;;3.58;100.00
42385;BME280;28042;43.986;22.860;2023-11-19T03:52:17;101374.94;;;3.58;100.00
42385;BME280;28042;43.986;22.860;2023-11-19T03:54:43;101370.13;;;3.61;100.00
42385;BME280;28042;43.986;22.860;2023-11-19T03:57:08;101392.56;;;3.72;100.00
42385;BME280;28042;43.986;22.860;2023-11-19T03:59:36;101353.56;;;3.45;100.00
42385;BME280;28042;43.986;22.860;2023-11-19T04:02:02;101366.63;;;3.40;100.00
42385;BME280;28042;43.986;22.860;2023-11-19T04:04:28;101391.97;;;3.58;100.00
42385;BME280;28042;43.986;22.860;2023-11-19T04:06:55;101349.00;;;3.36;100.00
42385;BME280;28042;43.986;22.860;2023-11-19T04:09:21;101383.72;;;3.50;100.00
42385;BME280;28042;43.986;22.860;2023-11-19T04:11:46;101338.75;;;3.30;100.00
42385;BME280;28042;43.986;22.860;2023-11-19T04:14:13;101344.09;;;3.20;100.00
42385;BME280;28042;43.986;22.860;2023-11-19T04:16:39;101342.94;;;3.13;100.00
42385;BME280;28042;43.986;22.860;2023-11-19T04:19:05;101377.28;;;3.21;100.00
42385;BME280;28042;43.986;22.860;2023-11-19T04:21:30;101366.06;;;3.16;100.00
42385;BME280;28042;43.986;22.860;2023-11-19T04:23:56;101377.72;;;3.16;100.00
42385;BME280;28042;43.986;22.860;2023-11-19T04:26:22;101372.06;;;2.98;100.00
42385;BME280;28042;43.986;22.860;2023-11-19T04:28:47;101398.44;;;3.16;100.00
42385;BME280;28042;43.986;22.860;2023-11-19T04:31:17;101399.47;;;3.03;100.00
42385;BME280;28042;43.986;22.860;2023-11-19T04:33:43;101410.44;;;3.11;100.00
42385;BME280;28042;43.986;22.860;2023-11-19T04:36:11;101392.16;;;2.94;100.00
42385;BME280;28042;43.986;22.860;2023-11-19T04:38:37;101375.88;;;2.75;100.00
42385;BME280;28042;43.986;22.860;2023-11-19T04:41:04;101408.53;;;2.81;100.00
42385;BME280;28042;43.986;22.860;2023-11-19T04:43:31;101413.31;;;2.78;100.00
42385;BME280;28042;43.986;22.860;2023-11-19T04:45:56;101415.00;;;2.90;100.00
42385;BME280;28042;43.986;22.860;2023-11-19T04:48:23;101374.25;;;2.63;100.00
42385;BME280;28042;43.986;22.860;2023-11-19T04:50:48;101379.16;;;2.58;100.00
42385;BME280;28042;43.986;22.860;2023-11-19T04:53:16;101381.38;;;2.52;100.00
42385;BME280;28042;43.986;22.860;2023-11-19T04:55:42;101402.44;;;2.47;100.00
42385;BME280;28042;43.986;22.860;2023-11-19T04:58:08;101407.84;;;2.47;100.00
42385;BME280;28042;43.986;22.860;2023-11-19T05:00:33;101420.03;;;2.51;100.00
42385;BME280;28042;43.986;22.860;2023-11-19T05:02:58;101425.25;;;2.43;100.00
42385;BME280;28042;43.986;22.860;2023-11-19T05:05:24;101437.44;;;2.47;100.00
42385;BME280;28042;43.986;22.860;2023-11-19T05:07:49;101415.97;;;2.36;100.00
42385;BME280;28042;43.986;22.860;2023-11-19T05:10:15;101451.13;;;2.55;100.00
42385;BME280;28042;43.986;22.860;2023-11-19T05:12:40;101401.03;;;2.32;100.00
42385;BME280;28042;43.986;22.860;2023-11-19T05:15:06;101432.78;;;2.49;100.00
42385;BME280;28042;43.986;22.860;2023-11-19T05:17:32;101433.41;;;2.53;100.00
42385;BME280;28042;43.986;22.860;2023-11-19T05:19:58;101409.69;;;2.47;100.00
42385;BME280;28042;43.986;22.860;2023-11-19T05:22:23;101418.09;;;2.53;100.00
42385;BME280;28042;43.986;22.860;2023-11-19T05:24:49;101446.13;;;2.83;100.00
42385;BME280;28042;43.986;22.860;2023-11-19T05:27:14;101456.41;;;2.89;100.00
42385;BME280;28042;43.986;22.860;2023-11-19T05:29:40;101452.19;;;2.96;100.00
42385;BME280;28042;43.986;22.860;2023-11-19T05:32:07;101432.16;;;2.89;100.00
42385;BME280;28042;43.986;22.860;2023-11-19T05:34:32;101405.25;;;2.78;100.00
42385;BME280;28042;43.986;22.860;2023-11-19T05:36:57;101448.72;;;3.05;100.00
42385;BME280;28042;43.986;22.860;2023-11-19T05:39:23;101436.22;;;3.04;100.00
42385;BME280;28042;43.986;22.860;2023-11-19T05:41:49;101439.88;;;3.03;100.00
42385;BME280;28042;43.986;22.860;2023-11-19T05:44:15;101430.22;;;3.01;100.00
42385;BME280;28042;43.986;22.860;2023-11-19T05:46:41;101432.56;;;3.05;100.00
42385;BME280;28042;43.986;22.860;2023-11-19T05:49:08;101447.09;;;3.14;100.00
42385;BME280;28042;43.986;22.860;2023-11-19T05:51:38;101455.63;;;3.19;100.00
42385;BME280;28042;43.986;22.860;2023-11-19T05:54:05;101451.22;;;3.18;100.00
42385;BME280;28042;43.986;22.860;2023-11-19T05:56:32;101447.16;;;3.24;100.00
42385;BME280;28042;43.986;22.860;2023-11-19T05:58:58;101415.31;;;3.18;100.00
42385;BME280;28042;43.986;22.860;2023-11-19T06:01:26;101445.28;;;3.45;100.00
42385;BME280;28042;43.986;22.860;2023-11-19T06:03:52;101414.50;;;3.27;100.00
42385;BME280;28042;43.986;22.860;2023-11-19T06:06:18;101434.75;;;3.42;100.00
42385;BME280;28042;43.986;22.860;2023-11-19T06:08:44;101464.63;;;3.50;100.00
42385;BME280;28042;43.986;22.860;2023-11-19T06:11:10;101460.25;;;3.59;100.00
42385;BME280;28042;43.986;22.860;2023-11-19T06:13:40;101424.53;;;3.46;100.00
42385;BME280;28042;43.986;22.860;2023-11-19T06:16:05;101414.59;;;3.46;100.00
42385;BME280;28042;43.986;22.860;2023-11-19T06:18:31;101425.91;;;3.61;100.00
42385;BME280;28042;43.986;22.860;2023-11-19T06:20:56;101463.50;;;3.83;100.00
42385;BME280;28042;43.986;22.860;2023-11-19T06:23:22;101421.09;;;3.64;100.00
42385;BME280;28042;43.986;22.860;2023-11-19T06:25:47;101466.81;;;3.96;100.00
42385;BME280;28042;43.986;22.860;2023-11-19T06:28:13;101409.94;;;3.79;100.00
42385;BME280;28042;43.986;22.860;2023-11-19T06:30:38;101434.41;;;3.87;99.52
42385;BME280;28042;43.986;22.860;2023-11-19T06:33:04;101464.59;;;4.11;99.27
42385;BME280;28042;43.986;22.860;2023-11-19T06:35:30;101458.38;;;4.20;97.96
42385;BME280;28042;43.986;22.860;2023-11-19T06:38:04;101436.31;;;4.15;98.07
42385;BME280;28042;43.986;22.860;2023-11-19T06:40:30;101426.53;;;4.14;97.09
42385;BME280;28042;43.986;22.860;2023-11-19T06:42:56;101463.81;;;4.40;96.03
42385;BME280;28042;43.986;22.860;2023-11-19T06:45:22;101474.50;;;4.51;95.07
42385;BME280;28042;43.986;22.860;2023-11-19T06:47:47;101466.69;;;4.58;94.07
42385;BME280;28042;43.986;22.860;2023-11-19T06:50:13;101461.88;;;4.61;93.38
42385;BME280;28042;43.986;22.860;2023-11-19T06:52:40;101457.03;;;4.65;93.52
42385;BME280;28042;43.986;22.860;2023-11-19T06:55:05;101447.94;;;4.56;93.45
42385;BME280;28042;43.986;22.860;2023-11-19T06:57:31;101449.34;;;4.60;92.86
42385;BME280;28042;43.986;22.860;2023-11-19T06:59:58;101467.28;;;4.80;93.21
42385;BME280;28042;43.986;22.860;2023-11-19T07:02:24;101479.25;;;4.88;93.58
42385;BME280;28042;43.986;22.860;2023-11-19T07:04:50;101446.53;;;4.71;91.68
42385;BME280;28042;43.986;22.860;2023-11-19T07:07:15;101475.81;;;4.86;90.65
42385;BME280;28042;43.986;22.860;2023-11-19T07:09:41;101461.59;;;4.83;90.82
42385;BME280;28042;43.986;22.860;2023-11-19T07:12:06;101503.44;;;5.08;90.91
42385;BME280;28042;43.986;22.860;2023-11-19T07:14:32;101499.47;;;5.13;90.62
42385;BME280;28042;43.986;22.860;2023-11-19T07:16:57;101458.03;;;4.93;89.01
42385;BME280;28042;43.986;22.860;2023-11-19T07:19:23;101507.69;;;5.21;88.51
42385;BME280;28042;43.986;22.860;2023-11-19T07:21:48;101468.44;;;5.07;88.47
42385;BME280;28042;43.986;22.860;2023-11-19T07:24:14;101492.19;;;5.32;87.38
42385;BME280;28042;43.986;22.860;2023-11-19T07:26:43;101466.72;;;5.16;87.19
42385;BME280;28042;43.986;22.860;2023-11-19T07:29:09;101462.59;;;5.21;86.40
42385;BME280;28042;43.986;22.860;2023-11-19T07:31:35;101485.59;;;5.45;86.68
42385;BME280;28042;43.986;22.860;2023-11-19T07:34:01;101505.66;;;5.52;85.91
42385;BME280;28042;43.986;22.860;2023-11-19T07:36:26;101488.88;;;5.38;84.70
42385;BME280;28042;43.986;22.860;2023-11-19T07:38:52;101522.28;;;5.76;85.40
42385;BME280;28042;43.986;22.860;2023-11-19T07:41:18;101510.16;;;5.80;84.31
42385;BME280;28042;43.986;22.860;2023-11-19T07:43:45;101483.28;;;5.69;82.85
42385;BME280;28042;43.986;22.860;2023-11-19T07:46:12;101516.16;;;5.93;82.82
42385;BME280;28042;43.986;22.860;2023-11-19T07:48:40;101512.88;;;6.27;82.93
42385;BME280;28042;43.986;22.860;2023-11-19T07:51:07;101518.69;;;6.32;81.92
42385;BME280;28042;43.986;22.860;2023-11-19T07:53:33;101497.69;;;6.44;81.54
42385;BME280;28042;43.986;22.860;2023-11-19T07:55:59;101510.63;;;6.68;81.32
42385;BME280;28042;43.986;22.860;2023-11-19T07:58:25;101498.31;;;6.28;80.10
42385;BME280;28042;43.986;22.860;2023-11-19T08:00:51;101520.38;;;6.43;80.89
42385;BME280;28042;43.986;22.860;2023-11-19T08:03:17;101524.09;;;6.32;80.41
42385;BME280;28042;43.986;22.860;2023-11-19T08:05:44;101519.03;;;6.47;80.03
42385;BME280;28042;43.986;22.860;2023-11-19T08:08:10;101506.28;;;6.30;80.23
42385;BME280;28042;43.986;22.860;2023-11-19T08:10:35;101470.63;;;6.34;81.33
42385;BME280;28042;43.986;22.860;2023-11-19T08:13:01;101489.84;;;6.59;80.08
42385;BME280;28042;43.986;22.860;2023-11-19T08:15:27;101476.22;;;6.50;78.99
42385;BME280;28042;43.986;22.860;2023-11-19T08:17:52;101490.72;;;6.59;79.49
42385;BME280;28042;43.986;22.860;2023-11-19T08:20:18;101502.31;;;6.79;78.53
42385;BME280;28042;43.986;22.860;2023-11-19T08:22:44;101505.00;;;6.61;77.58
42385;BME280;28042;43.986;22.860;2023-11-19T08:25:09;101513.44;;;6.76;77.89
42385;BME280;28042;43.986;22.860;2023-11-19T08:27:35;101472.22;;;6.55;77.59
42385;BME280;28042;43.986;22.860;2023-11-19T08:30:00;101495.78;;;6.90;78.17
42385;BME280;28042;43.986;22.860;2023-11-19T08:32:26;101499.03;;;7.11;77.16
42385;BME280;28042;43.986;22.860;2023-11-19T08:34:53;101487.03;;;7.14;76.88
42385;BME280;28042;43.986;22.860;2023-11-19T08:37:18;101475.34;;;6.95;76.42
42385;BME280;28042;43.986;22.860;2023-11-19T08:39:49;101503.59;;;6.93;76.60
42385;BME280;28042;43.986;22.860;2023-11-19T08:42:15;101498.09;;;7.02;77.99
42385;BME280;28042;43.986;22.860;2023-11-19T08:44:41;101507.50;;;6.90;77.02
42385;BME280;28042;43.986;22.860;2023-11-19T08:47:11;101526.06;;;6.85;77.80
42385;BME280;28042;43.986;22.860;2023-11-19T08:49:37;101476.47;;;6.57;78.86
42385;BME280;28042;43.986;22.860;2023-11-19T08:52:04;101492.59;;;6.76;77.56
42385;BME280;28042;43.986;22.860;2023-11-19T08:54:30;101472.47;;;6.79;78.42
42385;BME280;28042;43.986;22.860;2023-11-19T08:56:55;101494.53;;;6.84;77.91
42385;BME280;28042;43.986;22.860;2023-11-19T08:59:20;101473.56;;;6.41;77.68
42385;BME280;28042;43.986;22.860;2023-11-19T09:01:46;101490.28;;;6.82;78.64
42385;BME280;28042;43.986;22.860;2023-11-19T09:04:11;101500.44;;;6.97;76.78
42385;BME280;28042;43.986;22.860;2023-11-19T09:06:37;101490.53;;;6.88;76.76
42385;BME280;28042;43.986;22.860;2023-11-19T09:09:02;101460.97;;;6.67;77.00
42385;BME280;28042;43.986;22.860;2023-11-19T09:11:30;101477.19;;;6.95;77.76
42385;BME280;28042;43.986;22.860;2023-11-19T09:13:56;101443.34;;;6.81;76.44
42385;BME280;28042;43.986;22.860;2023-11-19T09:16:21;101457.50;;;7.11;76.97
42385;BME280;28042;43.986;22.860;2023-11-19T09:18:47;101428.97;;;7.06;75.68
42385;BME280;28042;43.986;22.860;2023-11-19T09:21:12;101426.00;;;7.18;75.22
42385;BME280;28042;43.986;22.860;2023-11-19T09:23:38;101422.88;;;7.04;74.69
42385;BME280;28042;43.986;22.860;2023-11-19T09:26:10;101462.44;;;7.33;74.01
42385;BME280;28042;43.986;22.860;2023-11-19T09:28:36;101425.31;;;7.16;74.10
42385;BME280;28042;43.986;22.860;2023-11-19T09:31:01;101439.44;;;7.45;73.08
42385;BME280;28042;43.986;22.860;2023-11-19T09:33:30;101440.66;;;7.51;73.01
42385;BME280;28042;43.986;22.860;2023-11-19T09:35:56;101423.88;;;7.47;71.89
42385;BME280;28042;43.986;22.860;2023-11-19T09:38:21;101409.22;;;7.40;70.83
42385;BME280;28042;43.986;22.860;2023-11-19T09:40:47;101447.97;;;7.50;71.27
42385;BME280;28042;43.986;22.860;2023-11-19T09:43:14;101420.19;;;7.56;71.28
42385;BME280;28042;43.986;22.860;2023-11-19T09:45:50;101441.47;;;7.69;71.19
42385;BME280;28042;43.986;22.860;2023-11-19T09:48:19;101411.50;;;7.53;70.46
42385;BME280;28042;43.986;22.860;2023-11-19T09:50:48;101434.72;;;7.81;71.31
42385;BME280;28042;43.986;22.860;2023-11-19T09:53:15;101403.94;;;7.64;69.40
42385;BME280;28042;43.986;22.860;2023-11-19T09:55:44;101429.28;;;7.81;68.74
42385;BME280;28042;43.986;22.860;2023-11-19T09:58:11;101401.81;;;7.50;69.10
42385;BME280;28042;43.986;22.860;2023-11-19T10:00:40;101397.13;;;7.60;70.66
42385;BME280;28042;43.986;22.860;2023-11-19T10:03:07;101421.31;;;7.80;69.50
42385;BME280;28042;43.986;22.860;2023-11-19T10:05:34;101406.00;;;7.71;69.43
42385;BME280;28042;43.986;22.860;2023-11-19T10:08:01;101413.88;;;7.82;68.59
42385;BME280;28042;43.986;22.860;2023-11-19T10:10:28;101403.19;;;7.88;68.38
42385;BME280;28042;43.986;22.860;2023-11-19T10:12:54;101388.28;;;7.58;67.95
42385;BME280;28042;43.986;22.860;2023-11-19T10:15:22;101394.22;;;7.96;68.50
42385;BME280;28042;43.986;22.860;2023-11-19T10:17:50;101418.34;;;7.99;67.17
42385;BME280;28042;43.986;22.860;2023-11-19T10:20:15;101395.88;;;7.89;68.38
42385;BME280;28042;43.986;22.860;2023-11-19T10:22:41;101426.19;;;8.02;66.97
42385;BME280;28042;43.986;22.860;2023-11-19T10:27:49;101364.16;;;7.98;66.70
42385;BME280;28042;43.986;22.860;2023-11-19T10:30:20;101399.75;;;8.20;66.04
42385;BME280;28042;43.986;22.860;2023-11-19T10:33:12;101360.47;;;8.07;66.02
42385;BME280;28042;43.986;22.860;2023-11-19T10:35:56;101347.56;;;8.01;64.95
42385;BME280;28042;43.986;22.860;2023-11-19T10:38:23;101344.50;;;8.04;65.27
42385;BME280;28042;43.986;22.860;2023-11-19T10:40:49;101384.41;;;8.03;64.84
42385;BME280;28042;43.986;22.860;2023-11-19T10:43:19;101378.31;;;8.09;66.20
42385;BME280;28042;43.986;22.860;2023-11-19T10:45:45;101372.41;;;8.22;65.24
42385;BME280;28042;43.986;22.860;2023-11-19T10:48:11;101350.44;;;8.07;64.93
42385;BME280;28042;43.986;22.860;2023-11-19T10:50:39;101361.00;;;8.10;64.49
42385;BME280;28042;43.986;22.860;2023-11-19T10:53:06;101363.91;;;8.17;65.12
42385;BME280;28042;43.986;22.860;2023-11-19T10:55:36;101367.47;;;8.09;64.37
42385;BME280;28042;43.986;22.860;2023-11-19T10:58:06;101355.41;;;8.12;64.44
42385;BME280;28042;43.986;22.860;2023-11-19T11:00:57;101365.97;;;8.31;64.75
42385;BME280;28042;43.986;22.860;2023-11-19T11:03:30;101348.97;;;8.29;64.39
42385;BME280;28042;43.986;22.860;2023-11-19T11:05:57;101337.59;;;8.17;62.84
42385;BME280;28042;43.986;22.860;2023-11-19T11:08:23;101339.63;;;8.32;63.72
42385;BME280;28042;43.986;22.860;2023-11-19T11:10:55;101337.59;;;8.34;63.40
42385;BME280;28042;43.986;22.860;2023-11-19T11:13:24;101348.53;;;8.50;62.54
42385;BME280;28042;43.986;22.860;2023-11-19T11:15:50;101335.03;;;8.24;62.30
42385;BME280;28042;43.986;22.860;2023-11-19T11:18:17;101335.84;;;8.16;62.58
42385;BME280;28042;43.986;22.860;2023-11-19T11:20:47;101327.84;;;7.99;62.66
42385;BME280;28042;43.986;22.860;2023-11-19T11:29:01;101347.34;;;8.44;61.60
42385;BME280;28042;43.986;22.860;2023-11-19T11:37:19;101321.50;;;8.89;60.75
42385;BME280;28042;43.986;22.860;2023-11-19T11:39:45;101314.88;;;8.84;59.37
42385;BME280;28042;43.986;22.860;2023-11-19T11:42:38;101309.78;;;8.64;59.40
42385;BME280;28042;43.986;22.860;2023-11-19T11:50:09;101300.28;;;8.44;60.60
42385;BME280;28042;43.986;22.860;2023-11-19T11:57:51;101293.66;;;8.79;58.12
42385;BME280;28042;43.986;22.860;2023-11-19T12:00:42;101270.84;;;8.88;58.78
42385;BME280;28042;43.986;22.860;2023-11-19T12:03:09;101256.06;;;8.83;58.73
42385;BME280;28042;43.986;22.860;2023-11-19T12:05:44;101278.28;;;9.02;57.30
42385;BME280;28042;43.986;22.860;2023-11-19T12:08:14;101234.09;;;8.92;57.44
42385;BME280;28042;43.986;22.860;2023-11-19T12:10:48;101239.50;;;9.00;58.16
42385;BME280;28042;43.986;22.860;2023-11-19T12:13:15;101221.47;;;9.07;57.59
42385;BME280;28042;43.986;22.860;2023-11-19T12:18:26;101239.56;;;9.40;55.71
42385;BME280;28042;43.986;22.860;2023-11-19T12:20:52;101246.34;;;9.44;55.15
42385;BME280;28042;43.986;22.860;2023-11-19T12:23:18;101224.94;;;9.32;54.66
42385;BME280;28042;43.986;22.860;2023-11-19T12:25:44;101252.41;;;9.54;54.30
42385;BME280;28042;43.986;22.860;2023-11-19T12:28:15;101241.00;;;9.58;54.93
42385;BME280;28042;43.986;22.860;2023-11-19T12:30:43;101232.00;;;9.50;53.85
42385;BME280;28042;43.986;22.860;2023-11-19T12:33:12;101254.13;;;9.47;53.11
42385;BME280;28042;43.986;22.860;2023-11-19T12:35:39;101239.22;;;9.34;53.44
42385;BME280;28042;43.986;22.860;2023-11-19T12:38:05;101253.34;;;9.69;53.65
42385;BME280;28042;43.986;22.860;2023-11-19T12:40:31;101252.28;;;9.78;53.72
42385;BME280;28042;43.986;22.860;2023-11-19T12:42:57;101250.22;;;9.80;55.06
42385;BME280;28042;43.986;22.860;2023-11-19T12:45:23;101224.78;;;9.65;55.72
42385;BME280;28042;43.986;22.860;2023-11-19T12:48:04;101223.66;;;9.51;56.92
42385;BME280;28042;43.986;22.860;2023-11-19T12:50:58;101212.41;;;9.54;57.43
42385;BME280;28042;43.986;22.860;2023-11-19T12:53:27;101223.88;;;9.42;56.49
42385;BME280;28042;43.986;22.860;2023-11-19T12:55:54;101218.31;;;9.27;55.44
42385;BME280;28042;43.986;22.860;2023-11-19T12:58:34;101242.91;;;9.50;55.13
42385;BME280;28042;43.986;22.860;2023-11-19T13:01:09;101248.13;;;9.20;55.25
42385;BME280;28042;43.986;22.860;2023-11-19T13:03:38;101248.84;;;9.14;55.43
42385;BME280;28042;43.986;22.860;2023-11-19T13:06:11;101250.91;;;9.04;56.82
42385;BME280;28042;43.986;22.860;2023-11-19T13:08:45;101220.28;;;9.02;57.84
42385;BME280;28042;43.986;22.860;2023-11-19T13:11:12;101233.16;;;9.24;57.68
42385;BME280;28042;43.986;22.860;2023-11-19T13:16:19;101222.53;;;9.38;57.57
42385;BME280;28042;43.986;22.860;2023-11-19T13:18:44;101236.94;;;9.46;58.04